Terminal Aerodrome Forecast
Issued by NWS

Home | Current Version | Previous Version | Text Only | Print | Product List | Glossary On
Versions: 1 2 3 4 5 6 7 8 9 10 11 12 13 14 15
000
FTUS42 KTBW 300314 AAA
TAFLAL
TAF AMD
KLAL 300314Z 3003/3024 09009KT P6SM -RA FEW030 BKN130
     FM300600 09005KT P6SM FEW010 BKN200
     FM301600 12008KT 6SM SHRA VCTS SCT018CB BKN040=

USA.gov is the U.S. government's official web portal to all federal, state and local government web resources and services.